Time;durP1;ratioP1;P1;durP2;ratioP2;P2;SDS_P1;SDS_P2;PMS_P1;PMS_P2;Temp;Humidity;BMP_temperature;BMP_pressure;BME280_temperature;BME280_humidity;BME280_pressure;Samples;Min_cycle;Max_cycle;Signal;HPM_P1;HPM_P2
2023/05/04 00:01:24;;;;;;;2.17;0.70;;;16.50;99.90;;;;;;5075786;28;20199;-72
2023/05/04 00:03:57;;;;;;;2.10;0.70;;;16.60;99.90;;;;;;5075717;28;20239;-73
2023/05/04 00:06:29;;;;;;;3.13;0.60;;;16.80;99.90;;;;;;5075799;28;20189;-73
2023/05/04 00:09:00;;;;;;;2.35;0.70;;;16.90;99.90;;;;;;5075860;28;20196;-73
2023/05/04 00:11:31;;;;;;;4.30;0.90;;;17.00;99.90;;;;;;5075753;28;20217;-73
2023/05/04 00:14:02;;;;;;;2.58;0.60;;;17.20;99.90;;;;;;5075834;28;20579;-73
2023/05/04 00:16:33;;;;;;;3.28;0.90;;;17.30;99.90;;;;;;5075456;28;20558;-72
2023/05/04 00:19:06;;;;;;;2.80;0.60;;;17.40;99.90;;;;;;5075950;28;20656;-72
2023/05/04 00:21:37;;;;;;;2.70;0.60;;;17.50;99.90;;;;;;5075620;28;20668;-73
2023/05/04 00:24:08;;;;;;;2.55;0.77;;;17.50;99.90;;;;;;5075508;28;20189;-73
2023/05/04 00:26:39;;;;;;;3.45;0.70;;;17.50;99.90;;;;;;5075503;28;20559;-72
2023/05/04 00:29:11;;;;;;;3.72;0.80;;;17.70;99.90;;;;;;5075390;28;20624;-73
2023/05/04 00:31:42;;;;;;;4.22;0.70;;;17.70;99.90;;;;;;5074799;28;20227;-73
2023/05/04 00:34:15;;;;;;;2.53;0.60;;;17.80;99.90;;;;;;5074769;28;20660;-72
2023/05/04 00:36:46;;;;;;;1.30;0.70;;;17.80;99.90;;;;;;5075303;28;20197;-72
2023/05/04 00:39:17;;;;;;;2.92;0.80;;;17.80;99.90;;;;;;5075525;28;20185;-72
2023/05/04 00:41:48;;;;;;;3.75;0.70;;;17.90;99.90;;;;;;5075148;28;20196;-73
2023/05/04 00:44:22;;;;;;;1.73;0.50;;;18.00;99.90;;;;;;5074911;28;20196;-73
2023/05/04 00:46:53;;;;;;;2.13;0.60;;;18.10;99.90;;;;;;5075040;28;20560;-72
2023/05/04 00:49:28;;;;;;;1.98;0.60;;;18.20;99.90;;;;;;5075062;28;20193;-76
2023/05/04 00:52:00;;;;;;;4.47;0.65;;;18.30;99.90;;;;;;5074779;28;20224;-72
2023/05/04 00:54:31;;;;;;;2.42;0.55;;;18.30;99.90;;;;;;5074902;28;20246;-73
2023/05/04 00:57:02;;;;;;;2.88;0.60;;;18.30;99.90;;;;;;5074884;28;20204;-76
2023/05/04 00:59:33;;;;;;;2.30;0.65;;;18.20;99.90;;;;;;5074818;28;20200;-72
2023/05/04 01:02:04;;;;;;;2.13;0.70;;;18.20;99.90;;;;;;5074749;28;20200;-73
2023/05/04 01:04:37;;;;;;;3.95;0.70;;;18.30;99.90;;;;;;5076557;28;20232;-73
2023/05/04 01:07:18;;;;;;;2.90;0.57;;;18.30;99.90;;;;;;5094901;28;20567;-73
2023/05/04 01:09:54;;;;;;;2.08;0.70;;;18.30;99.90;;;;;;5094737;28;20195;-76
2023/05/04 01:12:35;;;;;;;2.28;0.50;;;18.40;99.90;;;;;;5094664;28;20211;-74
2023/05/04 01:15:07;;;;;;;1.92;0.60;;;18.60;99.90;;;;;;5094542;28;20193;-73
2023/05/04 01:17:38;;;;;;;2.17;0.50;;;18.70;99.90;;;;;;5094778;28;20196;-73
2023/05/04 01:20:13;;;;;;;1.50;0.50;;;18.80;99.90;;;;;;5094776;28;20198;-73
2023/05/04 01:22:46;;;;;;;2.33;0.60;;;18.80;99.90;;;;;;5094604;28;20191;-73
2023/05/04 01:25:17;;;;;;;1.70;0.70;;;19.00;99.90;;;;;;5094910;28;20199;-73
2023/05/04 01:27:53;;;;;;;2.67;0.68;;;19.10;99.90;;;;;;5094376;28;20192;-75
2023/05/04 01:30:30;;;;;;;3.35;0.60;;;19.10;99.90;;;;;;5094408;28;20809;-73
2023/05/04 01:33:02;;;;;;;2.40;0.70;;;19.30;99.90;;;;;;5095250;28;20195;-74
2023/05/04 01:35:33;;;;;;;0.98;0.43;;;19.40;99.90;;;;;;5094416;28;20188;-73
2023/05/04 01:38:06;;;;;;;1.27;0.50;;;19.40;99.90;;;;;;5091613;28;20193;-73
2023/05/04 01:40:37;;;;;;;1.10;0.47;;;19.50;99.90;;;;;;5083241;28;20227;-74
2023/05/04 01:43:09;;;;;;;4.55;0.50;;;19.60;99.90;;;;;;5075444;28;20671;-74
2023/05/04 01:45:40;;;;;;;1.23;0.60;;;19.70;99.90;;;;;;5081401;28;20201;-73
2023/05/04 01:48:11;;;;;;;1.70;0.30;;;19.80;99.90;;;;;;5078627;28;20575;-75
2023/05/04 01:50:42;;;;;;;3.13;0.55;;;19.80;99.90;;;;;;5086374;28;20215;-73
2023/05/04 01:53:15;;;;;;;0.40;0.30;;;19.70;99.90;;;;;;5094006;28;20195;-73
2023/05/04 01:55:46;;;;;;;2.00;0.68;;;19.80;99.90;;;;;;5106008;28;20662;-76
2023/05/04 01:58:17;;;;;;;2.90;0.40;;;19.80;99.90;;;;;;5079824;28;20272;-73
2023/05/04 02:00:48;;;;;;;4.78;0.55;;;19.80;99.90;;;;;;5109652;28;20248;-73
2023/05/04 02:03:19;;;;;;;2.72;1.08;;;19.90;99.90;;;;;;5093954;28;20231;-75
2023/05/04 02:05:50;;;;;;;1.80;0.50;;;19.90;99.90;;;;;;5093418;28;20198;-73
2023/05/04 02:08:23;;;;;;;1.60;0.60;;;20.00;99.90;;;;;;5093499;28;20207;-73
2023/05/04 02:10:54;;;;;;;1.02;0.45;;;20.00;99.90;;;;;;5102319;28;20241;-74
2023/05/04 02:13:25;;;;;;;1.60;0.40;;;20.10;99.90;;;;;;5108084;28;20585;-73
2023/05/04 02:15:56;;;;;;;4.78;0.60;;;20.10;99.90;;;;;;5078389;28;20192;-73
2023/05/04 02:18:30;;;;;;;2.25;0.40;;;20.10;99.90;;;;;;5084505;28;20204;-75
2023/05/04 02:21:01;;;;;;;1.13;0.35;;;20.00;99.90;;;;;;5100636;28;20199;-74
2023/05/04 02:23:34;;;;;;;1.50;0.60;;;20.00;99.90;;;;;;5085658;28;20189;-73
2023/05/04 02:26:05;;;;;;;1.90;0.50;;;20.00;99.90;;;;;;5093222;28;20237;-74
2023/05/04 02:28:36;;;;;;;1.05;0.60;;;20.10;99.90;;;;;;5083602;28;20205;-74
2023/05/04 02:31:08;;;;;;;0.73;0.25;;;20.20;99.90;;;;;;5087975;28;20212;-73
2023/05/04 02:33:39;;;;;;;1.52;0.38;;;20.30;99.90;;;;;;5093825;28;20191;-72
2023/05/04 02:36:10;;;;;;;0.93;0.40;;;20.30;99.90;;;;;;5095851;28;20198;-74
2023/05/04 02:38:43;;;;;;;1.30;0.60;;;20.20;99.90;;;;;;5088142;28;20561;-74
2023/05/04 02:41:14;;;;;;;2.15;0.40;;;20.20;99.90;;;;;;5073057;28;20199;-73
2023/05/04 02:43:45;;;;;;;2.47;0.60;;;20.20;99.90;;;;;;5081560;28;20411;-73
2023/05/04 02:46:18;;;;;;;1.42;0.55;;;20.30;99.90;;;;;;5072751;28;20655;-72
2023/05/04 02:48:49;;;;;;;2.00;0.85;;;20.40;99.90;;;;;;5082370;28;20183;-75
2023/05/04 02:51:22;;;;;;;1.63;0.50;;;20.30;99.90;;;;;;5091344;28;20222;-73
2023/05/04 02:53:54;;;;;;;2.03;0.57;;;20.20;99.90;;;;;;5092447;28;20197;-74
2023/05/04 02:56:26;;;;;;;2.40;0.52;;;20.10;99.90;;;;;;5091248;28;20189;-74
2023/05/04 02:58:57;;;;;;;1.58;0.43;;;20.20;99.90;;;;;;5093163;28;20203;-73
2023/05/04 03:01:28;;;;;;;1.30;0.50;;;20.10;99.90;;;;;;5096034;28;20207;-73
2023/05/04 03:03:59;;;;;;;1.80;0.50;;;20.10;99.90;;;;;;5094517;28;20228;-73
2023/05/04 03:06:30;;;;;;;3.15;0.50;;;20.20;99.90;;;;;;5089102;28;20203;-74
2023/05/04 03:09:03;;;;;;;2.25;0.30;;;20.30;99.90;;;;;;5079505;28;20199;-74
2023/05/04 03:11:34;;;;;;;1.15;0.40;;;20.20;99.90;;;;;;5083526;28;20223;-73
2023/05/04 03:14:05;;;;;;;1.80;0.43;;;20.30;99.90;;;;;;5098485;28;20224;-74
2023/05/04 03:16:36;;;;;;;2.08;0.50;;;20.40;99.90;;;;;;5087167;28;20202;-74
2023/05/04 03:19:07;;;;;;;0.93;0.40;;;20.30;99.90;;;;;;5079860;28;20197;-74
2023/05/04 03:21:38;;;;;;;2.30;0.40;;;20.30;99.90;;;;;;5094979;28;20203;-73
2023/05/04 03:24:12;;;;;;;0.70;0.28;;;20.30;99.90;;;;;;5076201;28;20188;-75
2023/05/04 03:26:43;;;;;;;1.30;0.35;;;20.20;99.90;;;;;;5082849;28;20716;-73
2023/05/04 03:29:14;;;;;;;1.40;0.45;;;20.20;99.90;;;;;;5096765;28;20199;-74
2023/05/04 03:31:45;;;;;;;0.90;0.30;;;20.20;99.90;;;;;;5096662;28;20679;-74
2023/05/04 03:34:20;;;;;;;1.10;0.40;;;20.20;99.90;;;;;;5077994;28;20199;-74
2023/05/04 03:36:51;;;;;;;1.02;0.40;;;20.30;99.90;;;;;;5085995;28;20228;-74
2023/05/04 03:39:24;;;;;;;1.10;0.30;;;20.30;99.90;;;;;;5088559;28;20223;-74
2023/05/04 03:41:55;;;;;;;1.30;0.40;;;20.30;99.90;;;;;;5084069;28;20223;-74
2023/05/04 03:44:27;;;;;;;1.50;0.38;;;20.30;99.90;;;;;;5075992;28;20197;-73
2023/05/04 03:46:58;;;;;;;2.65;0.50;;;20.10;99.90;;;;;;5076717;28;20214;-74
2023/05/04 03:49:29;;;;;;;1.10;0.30;;;20.10;99.90;;;;;;5076045;28;20204;-74
2023/05/04 03:52:00;;;;;;;2.03;0.60;;;20.10;99.90;;;;;;5086865;28;20216;-73
2023/05/04 03:54:33;;;;;;;1.60;0.40;;;20.20;99.90;;;;;;5095313;28;20180;-73
2023/05/04 03:57:04;;;;;;;4.00;0.70;;;20.10;99.90;;;;;;5106838;28;20203;-75
2023/05/04 03:59:35;;;;;;;0.85;0.40;;;20.00;99.90;;;;;;5100290;28;20209;-74
2023/05/04 04:02:06;;;;;;;2.10;0.50;;;20.00;99.90;;;;;;5108256;28;20203;-74
2023/05/04 04:04:37;;;;;;;1.75;0.50;;;20.00;99.90;;;;;;5083694;28;20229;-74
2023/05/04 04:07:08;;;;;;;0.88;0.30;;;20.00;99.90;;;;;;5083750;28;20226;-75
2023/05/04 04:09:41;;;;;;;1.55;0.40;;;20.00;99.90;;;;;;5094714;28;20196;-73
2023/05/04 04:12:12;;;;;;;3.53;0.65;;;19.90;99.90;;;;;;5095645;28;20239;-73
2023/05/04 04:14:43;;;;;;;2.90;0.57;;;19.80;99.90;;;;;;5095896;28;20196;-73
2023/05/04 04:17:15;;;;;;;1.17;0.45;;;19.80;99.90;;;;;;5096339;28;20279;-74
2023/05/04 04:19:46;;;;;;;3.28;0.70;;;19.90;99.90;;;;;;5095763;28;20553;-73
2023/05/04 04:22:17;;;;;;;1.10;0.40;;;19.90;99.90;;;;;;5095566;28;20189;-75
2023/05/04 04:24:50;;;;;;;2.28;0.50;;;19.90;99.90;;;;;;5095727;28;20200;-74
2023/05/04 04:27:21;;;;;;;2.42;0.50;;;19.80;99.90;;;;;;5095651;28;20234;-73
2023/05/04 04:29:52;;;;;;;2.38;0.52;;;19.80;99.90;;;;;;5095664;28;20188;-73
2023/05/04 04:32:23;;;;;;;1.60;0.45;;;19.80;99.90;;;;;;5095855;28;20224;-74
2023/05/04 04:34:54;;;;;;;3.83;0.50;;;19.80;99.90;;;;;;5094354;28;20196;-74
2023/05/04 04:37:25;;;;;;;1.10;0.45;;;19.80;99.90;;;;;;5083955;28;20188;-73
2023/05/04 04:39:58;;;;;;;1.63;0.50;;;19.80;99.90;;;;;;5080501;28;20541;-73
2023/05/04 04:42:29;;;;;;;2.55;0.50;;;19.70;99.90;;;;;;5075513;28;20186;-73
2023/05/04 04:45:04;;;;;;;2.00;0.50;;;19.70;99.90;;;;;;5075435;28;20193;-75
2023/05/04 04:47:35;;;;;;;2.80;0.60;;;19.70;99.90;;;;;;5075105;28;20191;-73
2023/05/04 04:50:06;;;;;;;1.80;0.45;;;19.60;99.90;;;;;;5075075;28;20189;-73
2023/05/04 04:52:37;;;;;;;1.33;0.47;;;19.60;99.90;;;;;;5074684;28;20220;-73
2023/05/04 04:55:11;;;;;;;1.58;0.57;;;19.50;99.90;;;;;;5074830;28;20200;-73
2023/05/04 04:57:43;;;;;;;1.25;0.50;;;19.60;99.90;;;;;;5075074;28;20196;-73
2023/05/04 05:00:14;;;;;;;1.85;0.40;;;19.60;99.90;;;;;;5075059;28;20191;-73
2023/05/04 05:02:45;;;;;;;2.97;0.57;;;19.60;99.90;;;;;;5074455;28;20323;-74
2023/05/04 05:05:17;;;;;;;1.40;0.40;;;19.60;99.90;;;;;;5074452;28;20201;-75
2023/05/04 05:07:48;;;;;;;1.98;0.52;;;19.60;99.90;;;;;;5074683;28;20280;-73
2023/05/04 05:10:22;;;;;;;1.75;0.60;;;19.50;99.90;;;;;;5074479;28;20200;-74
2023/05/04 05:12:53;;;;;;;2.92;0.65;;;19.50;99.90;;;;;;5077880;28;20240;-72
2023/05/04 05:15:24;;;;;;;2.53;0.43;;;19.50;99.90;;;;;;5093000;28;20567;-74
2023/05/04 05:17:55;;;;;;;1.63;0.45;;;19.50;99.90;;;;;;5095639;28;20189;-73
2023/05/04 05:20:26;;;;;;;2.08;0.50;;;19.50;99.90;;;;;;5094338;28;20194;-73
2023/05/04 05:22:57;;;;;;;1.30;0.47;;;19.40;99.90;;;;;;5094487;28;20200;-74
2023/05/04 05:25:30;;;;;;;1.17;0.50;;;19.40;99.90;;;;;;5094767;28;20200;-74
2023/05/04 05:28:01;;;;;;;2.17;0.60;;;19.30;99.90;;;;;;5094494;28;20203;-74
2023/05/04 05:30:33;;;;;;;1.13;0.50;;;19.30;99.90;;;;;;5091133;28;20194;-73
2023/05/04 05:33:04;;;;;;;1.48;0.50;;;19.30;99.90;;;;;;5094449;28;20212;-73
2023/05/04 05:35:35;;;;;;;1.48;0.40;;;19.30;99.90;;;;;;5094349;28;20707;-74
2023/05/04 05:38:06;;;;;;;2.80;0.50;;;19.30;99.90;;;;;;5094384;28;20199;-74
2023/05/04 05:40:39;;;;;;;1.27;0.43;;;19.30;99.90;;;;;;5094359;28;20271;-74
2023/05/04 05:43:10;;;;;;;1.50;0.43;;;19.20;99.90;;;;;;5094492;28;20188;-74
2023/05/04 05:45:41;;;;;;;1.75;0.60;;;19.20;99.90;;;;;;5094568;28;20199;-74
2023/05/04 05:48:13;;;;;;;1.95;0.60;;;19.20;99.90;;;;;;5091971;28;20192;-74
2023/05/04 05:50:44;;;;;;;1.05;0.40;;;19.20;99.90;;;;;;5092893;28;20282;-74
2023/05/04 05:53:15;;;;;;;2.20;0.77;;;19.20;99.90;;;;;;5094016;28;20212;-74
2023/05/04 05:55:49;;;;;;;2.45;0.70;;;19.20;99.90;;;;;;5094032;28;20196;-75
2023/05/04 05:58:20;;;;;;;2.00;0.55;;;19.10;99.90;;;;;;5094548;28;20646;-74
2023/05/04 06:00:51;;;;;;;1.70;0.57;;;19.10;99.90;;;;;;5093960;28;20188;-74
2023/05/04 06:03:22;;;;;;;3.50;0.63;;;19.10;99.90;;;;;;5093568;28;20236;-74
2023/05/04 06:05:53;;;;;;;0.60;0.40;;;19.00;99.90;;;;;;5090494;28;20207;-74
2023/05/04 06:08:24;;;;;;;2.97;0.70;;;19.00;99.90;;;;;;5093882;28;20192;-75
2023/05/04 06:10:57;;;;;;;2.30;0.50;;;19.00;99.90;;;;;;5093904;28;20188;-74
2023/05/04 06:13:28;;;;;;;1.52;0.52;;;19.00;99.90;;;;;;5093605;28;20232;-75
2023/05/04 06:16:00;;;;;;;1.70;0.65;;;18.90;99.90;;;;;;5093802;28;20203;-75
2023/05/04 06:18:31;;;;;;;5.28;0.70;;;18.80;99.90;;;;;;5093542;28;20188;-74
2023/05/04 06:21:02;;;;;;;3.60;0.57;;;18.80;99.90;;;;;;5093634;28;20196;-75
2023/05/04 06:23:34;;;;;;;3.60;0.70;;;18.80;99.90;;;;;;5087417;28;20197;-74
2023/05/04 06:26:07;;;;;;;5.32;0.85;;;18.70;99.90;;;;;;5086910;28;20196;-76
2023/05/04 06:28:38;;;;;;;4.25;0.80;;;18.70;99.90;;;;;;5075783;28;20201;-75
2023/05/04 06:31:10;;;;;;;1.77;0.70;;;18.70;99.90;;;;;;5072508;28;20185;-74
2023/05/04 06:33:41;;;;;;;1.83;0.50;;;18.70;99.90;;;;;;5073081;28;20217;-75
2023/05/04 06:36:13;;;;;;;1.75;0.60;;;18.70;99.90;;;;;;5073339;28;20657;-75
2023/05/04 06:38:44;;;;;;;3.45;0.65;;;18.60;99.90;;;;;;5073661;28;20254;-76
2023/05/04 06:41:17;;;;;;;1.73;0.65;;;18.60;99.90;;;;;;5073213;28;20197;-75
2023/05/04 06:43:53;;;;;;;2.10;0.65;;;18.60;99.90;;;;;;5073292;28;20201;-75
2023/05/04 06:46:25;;;;;;;1.85;0.60;;;18.60;99.90;;;;;;5071666;28;20215;-75
2023/05/04 06:48:57;;;;;;;2.78;0.85;;;18.50;99.90;;;;;;5083253;28;20195;-75
2023/05/04 06:51:28;;;;;;;2.10;0.90;;;18.50;99.90;;;;;;5076701;28;20203;-75
2023/05/04 06:54:00;;;;;;;4.00;1.13;;;18.40;99.90;;;;;;5087603;28;20219;-74
2023/05/04 06:56:34;;;;;;;1.52;0.55;;;18.40;99.90;;;;;;5073763;28;20719;-74
2023/05/04 06:59:05;;;;;;;2.13;0.80;;;18.30;99.90;;;;;;5085011;28;20192;-75
2023/05/04 07:01:37;;;;;;;2.22;0.63;;;18.20;99.90;;;;;;5095729;28;20218;-75
2023/05/04 07:04:08;;;;;;;2.78;0.77;;;18.20;99.90;;;;;;5079649;28;20235;-75
2023/05/04 07:06:39;;;;;;;2.90;0.70;;;18.10;99.90;;;;;;5079309;28;20204;-75
2023/05/04 07:09:10;;;;;;;1.85;0.90;;;18.10;99.90;;;;;;5074551;28;20204;-76
2023/05/04 07:11:44;;;;;;;4.82;0.90;;;18.00;99.90;;;;;;5078964;28;20595;-74
2023/05/04 07:14:15;;;;;;;3.45;0.80;;;18.00;99.90;;;;;;5080246;28;20660;-74
2023/05/04 07:16:46;;;;;;;2.75;0.90;;;17.90;99.90;;;;;;5086898;28;20196;-75
2023/05/04 07:19:17;;;;;;;1.60;0.73;;;17.90;99.90;;;;;;5086197;28;20193;-75
2023/05/04 07:21:49;;;;;;;2.67;0.85;;;17.80;99.90;;;;;;5084314;28;20568;-75
2023/05/04 07:24:20;;;;;;;1.77;0.88;;;17.80;99.90;;;;;;5089183;28;20654;-75
2023/05/04 07:26:53;;;;;;;1.88;0.70;;;17.70;99.90;;;;;;5087767;28;20197;-74
2023/05/04 07:29:24;;;;;;;1.20;0.70;;;17.70;99.90;;;;;;5087545;28;20203;-75
2023/05/04 07:31:55;;;;;;;3.90;0.90;;;17.70;99.90;;;;;;5088966;28;20200;-75
2023/05/04 07:34:26;;;;;;;4.80;0.90;;;17.60;99.90;;;;;;5089675;28;20196;-75
2023/05/04 07:36:57;;;;;;;2.88;0.77;;;17.60;99.90;;;;;;5086471;28;20200;-75
2023/05/04 07:39:28;;;;;;;2.30;0.60;;;17.60;99.90;;;;;;5082172;28;20204;-75
2023/05/04 07:42:01;;;;;;;2.63;0.80;;;17.50;99.90;;;;;;5080049;28;20208;-74
2023/05/04 07:44:32;;;;;;;2.75;0.80;;;17.50;99.90;;;;;;5093612;28;20563;-74
2023/05/04 07:47:04;;;;;;;2.05;0.57;;;17.50;99.90;;;;;;5078515;28;20196;-74
2023/05/04 07:49:35;;;;;;;2.33;0.80;;;17.40;99.90;;;;;;5095214;28;20196;-74
2023/05/04 07:52:07;;;;;;;1.25;0.75;;;17.40;99.90;;;;;;5095930;27;20188;-75
2023/05/04 07:54:38;;;;;;;2.47;0.80;;;17.30;99.90;;;;;;5094008;28;20565;-75
2023/05/04 07:57:11;;;;;;;2.45;1.10;;;17.30;99.90;;;;;;5099841;28;20192;-74
2023/05/04 07:59:42;;;;;;;5.30;1.20;;;17.30;99.90;;;;;;5099154;28;20184;-74
2023/05/04 08:02:13;;;;;;;2.42;0.90;;;17.20;99.90;;;;;;5081330;28;20244;-77
2023/05/04 08:04:45;;;;;;;3.20;0.75;;;17.20;99.90;;;;;;5101074;28;20277;-77
2023/05/04 08:07:16;;;;;;;1.52;0.60;;;17.10;99.90;;;;;;5078499;28;20203;-75
2023/05/04 08:09:47;;;;;;;1.90;0.80;;;17.10;99.90;;;;;;5115184;28;20192;-78
2023/05/04 08:12:20;;;;;;;4.40;1.02;;;17.10;99.90;;;;;;5087853;28;20574;-75
2023/05/04 08:14:51;;;;;;;2.65;0.85;;;17.00;99.90;;;;;;5081338;28;20203;-76
2023/05/04 08:17:22;;;;;;;2.33;0.88;;;17.00;99.90;;;;;;5093449;28;20252;-76
2023/05/04 08:19:53;;;;;;;1.65;0.75;;;17.00;99.90;;;;;;5078753;28;20196;-75
2023/05/04 08:22:25;;;;;;;2.10;0.80;;;17.00;99.90;;;;;;5090093;28;20189;-77
2023/05/04 08:24:56;;;;;;;2.83;0.70;;;17.00;99.90;;;;;;5094371;28;20200;-75
2023/05/04 08:27:29;;;;;;;1.65;0.80;;;16.90;99.90;;;;;;5094517;28;20204;-78
2023/05/04 08:30:01;;;;;;;1.90;0.90;;;16.90;99.90;;;;;;5077110;28;20675;-77
2023/05/04 08:32:32;;;;;;;1.88;0.80;;;16.90;99.90;;;;;;5075418;28;20213;-75
2023/05/04 08:35:03;;;;;;;2.17;0.90;;;16.90;99.90;;;;;;5078337;28;20201;-76
2023/05/04 08:37:35;;;;;;;3.03;0.90;;;16.80;99.90;;;;;;5090545;28;20223;-76
2023/05/04 08:40:06;;;;;;;1.80;1.00;;;16.80;99.90;;;;;;5075266;28;20200;-77
2023/05/04 08:42:39;;;;;;;2.42;1.02;;;16.80;99.90;;;;;;5081191;28;20204;-75
2023/05/04 08:45:11;;;;;;;2.13;0.90;;;16.80;99.90;;;;;;5087795;28;20200;-74
2023/05/04 08:47:42;;;;;;;2.45;1.00;;;16.70;99.90;;;;;;5095432;28;20185;-75
2023/05/04 08:50:14;;;;;;;2.47;1.10;;;16.70;99.90;;;;;;5078600;28;20652;-75
2023/05/04 08:52:47;;;;;;;2.63;1.00;;;16.80;99.90;;;;;;5077055;28;20270;-77
2023/05/04 08:55:19;;;;;;;2.00;0.90;;;16.70;99.90;;;;;;5083884;28;20204;-74
2023/05/04 08:57:53;;;;;;;1.77;1.15;;;16.70;99.90;;;;;;5074938;28;20189;-74
2023/05/04 09:00:25;;;;;;;1.58;0.90;;;16.70;99.90;;;;;;5080502;28;20211;-74
2023/05/04 09:02:58;;;;;;;2.55;1.10;;;16.70;99.90;;;;;;5087502;28;20723;-76
2023/05/04 09:05:29;;;;;;;3.42;1.05;;;16.60;99.90;;;;;;5080784;28;20240;-74
2023/05/04 09:08:01;;;;;;;4.45;1.20;;;16.60;99.90;;;;;;5075815;28;20208;-74
2023/05/04 09:10:32;;;;;;;2.55;1.02;;;16.60;99.90;;;;;;5087999;28;20192;-74
2023/05/04 09:13:06;;;;;;;4.03;1.17;;;16.60;99.90;;;;;;5085247;28;20311;-74
2023/05/04 09:15:37;;;;;;;3.00;1.10;;;16.60;99.90;;;;;;5089391;28;20204;-77
2023/05/04 09:18:08;;;;;;;2.38;1.00;;;16.60;99.90;;;;;;5078545;28;20197;-73
2023/05/04 09:20:48;;;;;;;1.65;1.00;;;16.50;99.90;;;;;;5074403;28;20200;-75
2023/05/04 09:23:21;;;;;;;1.85;1.13;;;16.50;99.90;;;;;;5089254;28;20203;-75
2023/05/04 09:25:52;;;;;;;1.58;1.13;;;16.50;99.90;;;;;;5090217;28;20254;-75
2023/05/04 09:28:37;;;;;;;3.30;1.35;;;16.50;99.90;;;;;;5077064;28;20238;-74
2023/05/04 09:31:10;;;;;;;3.08;1.23;;;16.50;99.90;;;;;;5093392;28;20192;-75
2023/05/04 09:33:43;;;;;;;2.67;1.20;;;16.40;99.90;;;;;;5087314;28;20244;-76
2023/05/04 09:36:18;;;;;;;1.75;1.00;;;16.40;99.90;;;;;;5096046;28;20207;-75
2023/05/04 09:38:49;;;;;;;2.50;0.90;;;16.40;99.90;;;;;;5092940;28;20210;-75
2023/05/04 09:41:20;;;;;;;2.38;1.17;;;16.40;99.90;;;;;;5089539;28;20196;-75
2023/05/04 09:43:53;;;;;;;2.17;0.90;;;16.40;99.90;;;;;;5091618;28;20196;-75
2023/05/04 09:46:24;;;;;;;2.35;1.10;;;16.40;99.90;;;;;;5089576;28;20204;-74
2023/05/04 09:48:56;;;;;;;2.22;1.10;;;16.40;99.90;;;;;;5088120;28;20569;-75
2023/05/04 09:51:28;;;;;;;2.75;0.90;;;16.40;99.90;;;;;;5089154;28;20192;-75
2023/05/04 09:54:03;;;;;;;2.38;0.90;;;16.30;99.90;;;;;;5088151;28;20235;-74
2023/05/04 09:56:43;;;;;;;5.18;1.35;;;16.30;99.90;;;;;;5082719;28;20816;-75
2023/05/04 09:59:17;;;;;;;3.10;1.10;;;16.30;99.90;;;;;;5083898;28;20210;-75
2023/05/04 10:01:48;;;;;;;2.65;1.17;;;16.30;99.90;;;;;;5082880;28;20278;-75
2023/05/04 10:04:19;;;;;;;2.72;1.30;;;16.20;99.90;;;;;;5080064;28;20232;-75
2023/05/04 10:06:50;;;;;;;5.05;1.60;;;16.20;99.90;;;;;;5095296;28;20227;-75
2023/05/04 10:09:22;;;;;;;4.57;1.30;;;16.20;99.90;;;;;;5087596;28;20207;-75
2023/05/04 10:11:55;;;;;;;2.60;1.38;;;16.10;99.90;;;;;;5084794;28;20578;-75
2023/05/04 10:14:28;;;;;;;2.90;1.48;;;16.10;99.90;;;;;;5088383;28;20251;-75
2023/05/04 10:17:10;;;;;;;3.45;1.63;;;16.10;99.90;;;;;;5092367;28;20204;-75
2023/05/04 10:19:56;;;;;;;4.43;2.00;;;16.00;99.90;;;;;;5088767;28;20722;-75
2023/05/04 10:22:54;;;;;;;6.03;2.00;;;16.00;99.90;;;;;;5073475;28;20193;-75
2023/05/04 10:25:46;;;;;;;4.60;2.00;;;16.00;99.90;;;;;;5093243;28;20208;-75
2023/05/04 10:28:27;;;;;;;3.10;2.10;;;15.90;99.90;;;;;;5088022;28;20203;-74
2023/05/04 10:31:03;;;;;;;6.47;2.28;;;15.80;99.90;;;;;;5087788;28;20203;-74
2023/05/04 10:33:42;;;;;;;6.97;2.60;;;15.80;99.90;;;;;;5092491;28;20245;-74
2023/05/04 10:36:13;;;;;;;7.18;2.80;;;15.70;99.90;;;;;;5093370;28;20200;-75
2023/05/04 10:38:45;;;;;;;4.90;2.30;;;15.70;99.90;;;;;;5091908;28;20703;-74
2023/05/04 10:41:21;;;;;;;6.82;1.90;;;15.60;99.90;;;;;;5093248;28;20188;-74
2023/05/04 10:43:52;;;;;;;3.88;1.70;;;15.50;99.90;;;;;;5092056;28;20707;-75
2023/05/04 10:46:26;;;;;;;5.50;2.17;;;15.40;99.90;;;;;;5092438;28;20557;-74
2023/05/04 10:48:57;;;;;;;4.78;2.28;;;15.30;99.90;;;;;;5093457;28;20195;-74
2023/05/04 10:51:29;;;;;;;6.00;2.35;;;15.20;99.90;;;;;;5083472;28;20201;-74
2023/05/04 10:54:00;;;;;;;4.82;2.35;;;15.20;99.90;;;;;;5072929;28;20220;-74
2023/05/04 10:56:31;;;;;;;7.53;2.80;;;15.20;99.90;;;;;;5077123;28;20231;-74
2023/05/04 10:59:11;;;;;;;6.20;2.50;;;15.10;99.90;;;;;;5083084;28;20682;-74
2023/05/04 11:01:47;;;;;;;4.90;2.50;;;15.10;99.90;;;;;;5105766;28;20211;-74
2023/05/04 11:04:25;;;;;;;8.55;2.95;;;15.00;99.90;;;;;;5087450;28;20596;-75
2023/05/04 11:07:03;;;;;;;9.05;3.22;;;15.00;99.90;;;;;;5091539;28;20199;-74
2023/05/04 11:09:39;;;;;;;6.57;3.10;;;15.00;99.90;;;;;;5093176;28;20192;-73
2023/05/04 11:12:11;;;;;;;4.93;2.78;;;15.00;99.90;;;;;;5097899;28;20227;-74
2023/05/04 11:14:43;;;;;;;7.63;2.92;;;15.00;99.90;;;;;;5072988;28;20240;-74
2023/05/04 11:17:16;;;;;;;5.38;2.65;;;15.00;99.90;;;;;;5074861;28;20202;-74
2023/05/04 11:19:54;;;;;;;6.97;2.85;;;15.00;99.90;;;;;;5082806;28;20196;-73
2023/05/04 11:22:25;;;;;;;5.97;2.90;;;15.00;99.90;;;;;;5093442;28;20188;-74
2023/05/04 11:24:56;;;;;;;6.50;2.63;;;15.00;99.90;;;;;;5096068;28;20220;-75
2023/05/04 11:27:29;;;;;;;5.18;2.58;;;15.00;99.90;;;;;;5081145;28;20219;-74
2023/05/04 11:30:01;;;;;;;5.75;2.70;;;15.00;99.90;;;;;;5105853;28;20677;-74
2023/05/04 11:32:42;;;;;;;7.05;3.00;;;15.00;99.90;;;;;;5086112;28;20722;-75
2023/05/04 11:35:18;;;;;;;5.53;2.67;;;15.00;99.90;;;;;;5097922;28;20261;-74
2023/05/04 11:37:49;;;;;;;4.65;2.88;;;15.10;99.90;;;;;;5090795;28;20199;-74
2023/05/04 11:40:21;;;;;;;6.75;2.88;;;15.00;99.90;;;;;;5088594;28;20200;-75
2023/05/04 11:42:53;;;;;;;6.90;2.80;;;15.00;99.90;;;;;;5076816;28;20550;-74
2023/05/04 11:45:25;;;;;;;6.47;2.70;;;15.00;99.90;;;;;;5086588;28;20200;-74
2023/05/04 11:47:59;;;;;;;6.10;2.83;;;15.00;99.90;;;;;;5099323;28;20196;-74
2023/05/04 11:50:30;;;;;;;6.95;2.92;;;15.00;99.90;;;;;;5103385;28;20200;-75
2023/05/04 11:53:08;;;;;;;7.38;2.97;;;15.00;99.90;;;;;;5085801;28;20628;-75
2023/05/04 11:55:40;;;;;;;6.75;2.85;;;15.00;99.90;;;;;;5088032;28;20212;-74
2023/05/04 11:58:11;;;;;;;6.25;2.60;;;15.00;99.90;;;;;;5076369;28;20197;-75
2023/05/04 12:00:44;;;;;;;7.85;2.78;;;15.00;99.90;;;;;;5076051;28;20565;-74
2023/05/04 12:03:18;;;;;;;4.85;2.20;;;15.00;99.90;;;;;;5075808;28;20247;-75
2023/05/04 12:05:52;;;;;;;5.22;2.33;;;15.00;99.90;;;;;;5075801;28;20189;-74
2023/05/04 12:08:28;;;;;;;4.13;2.20;;;14.90;99.90;;;;;;5094498;28;20188;-75
2023/05/04 12:11:13;;;;;;;5.43;2.10;;;14.90;99.90;;;;;;5096093;28;20196;-75
2023/05/04 12:13:46;;;;;;;6.78;2.60;;;14.80;99.90;;;;;;5094380;28;20224;-75
2023/05/04 12:16:18;;;;;;;5.10;2.55;;;14.90;99.90;;;;;;5096127;28;20198;-75
2023/05/04 12:18:51;;;;;;;7.60;2.60;;;14.90;99.90;;;;;;5083197;28;20197;-74
2023/05/04 12:21:23;;;;;;;6.32;2.38;;;14.90;99.90;;;;;;5088767;28;20660;-74
2023/05/04 12:23:54;;;;;;;7.85;2.75;;;14.80;99.90;;;;;;5091990;28;20198;-75
2023/05/04 12:26:25;;;;;;;5.90;2.65;;;14.70;99.90;;;;;;5090646;28;20192;-74
2023/05/04 12:28:56;;;;;;;8.48;2.63;;;14.70;99.90;;;;;;5094557;28;20204;-74
2023/05/04 12:31:29;;;;;;;4.40;2.28;;;14.70;99.90;;;;;;5097829;28;20192;-73
2023/05/04 12:34:02;;;;;;;5.85;2.50;;;14.70;99.90;;;;;;5084281;28;20258;-75
2023/05/04 12:36:33;;;;;;;5.10;2.35;;;14.70;99.90;;;;;;5092106;28;20196;-74
2023/05/04 12:39:04;;;;;;;4.25;2.00;;;14.70;99.90;;;;;;5092754;28;20635;-74
2023/05/04 12:41:35;;;;;;;4.70;2.20;;;14.70;99.90;;;;;;5095505;28;20195;-74
2023/05/04 12:44:07;;;;;;;3.58;2.33;;;14.70;99.90;;;;;;5086193;28;20208;-74
2023/05/04 12:46:38;;;;;;;5.30;2.50;;;14.70;99.90;;;;;;5096641;28;20208;-75
2023/05/04 12:49:12;;;;;;;5.60;2.30;;;14.70;99.90;;;;;;5098573;28;20203;-74
2023/05/04 12:51:43;;;;;;;5.22;2.47;;;14.80;99.90;;;;;;5095419;28;20188;-75
2023/05/04 12:54:14;;;;;;;4.80;2.30;;;14.70;99.90;;;;;;5085258;28;20219;-73
2023/05/04 12:56:45;;;;;;;5.22;2.60;;;14.70;99.90;;;;;;5088579;28;20210;-74
2023/05/04 12:59:16;;;;;;;4.30;2.33;;;14.70;99.90;;;;;;5077533;28;20280;-74
2023/05/04 13:01:47;;;;;;;4.93;2.50;;;14.70;99.90;;;;;;5088049;28;20203;-75
2023/05/04 13:04:20;;;;;;;5.10;2.35;;;14.70;99.90;;;;;;5090355;28;20235;-74
2023/05/04 13:06:51;;;;;;;6.60;2.35;;;14.70;99.90;;;;;;5090003;28;20199;-74
2023/05/04 13:09:23;;;;;;;5.13;2.55;;;14.70;99.90;;;;;;5106881;28;20201;-74
2023/05/04 13:11:54;;;;;;;3.85;2.30;;;14.70;99.90;;;;;;5094159;28;20224;-74
2023/05/04 13:14:25;;;;;;;6.07;2.50;;;14.70;99.90;;;;;;5082351;28;20212;-75